sensor_id;sensor_type;location;lat;lon;timestamp;P1;durP1;ratioP1;P2;durP2;ratioP2
5710;SDS011;61291;52.524;13.422;2023-04-25T00:00:56;61.13;;;57.23;;
5710;SDS011;61291;52.524;13.422;2023-04-25T00:03:22;61.50;;;57.60;;
5710;SDS011;61291;52.524;13.422;2023-04-25T00:05:49;61.70;;;57.80;;
5710;SDS011;61291;52.524;13.422;2023-04-25T00:08:16;62.67;;;58.20;;
5710;SDS011;61291;52.524;13.422;2023-04-25T00:10:42;64.03;;;59.23;;
5710;SDS011;61291;52.524;13.422;2023-04-25T00:13:07;62.70;;;57.53;;
5710;SDS011;61291;52.524;13.422;2023-04-25T00:15:34;64.73;;;60.37;;
5710;SDS011;61291;52.524;13.422;2023-04-25T00:18:00;63.73;;;59.23;;
5710;SDS011;61291;52.524;13.422;2023-04-25T00:20:26;61.23;;;57.07;;
5710;SDS011;61291;52.524;13.422;2023-04-25T00:22:52;63.43;;;59.30;;
5710;SDS011;61291;52.524;13.422;2023-04-25T00:25:18;64.23;;;59.83;;
5710;SDS011;61291;52.524;13.422;2023-04-25T00:27:43;62.50;;;58.43;;
5710;SDS011;61291;52.524;13.422;2023-04-25T00:30:09;62.83;;;58.60;;
5710;SDS011;61291;52.524;13.422;2023-04-25T00:32:35;62.30;;;58.20;;
5710;SDS011;61291;52.524;13.422;2023-04-25T00:35:01;64.60;;;60.30;;
5710;SDS011;61291;52.524;13.422;2023-04-25T00:37:26;62.23;;;58.23;;
5710;SDS011;61291;52.524;13.422;2023-04-25T00:39:52;62.87;;;58.67;;
5710;SDS011;61291;52.524;13.422;2023-04-25T00:42:19;64.67;;;59.87;;
5710;SDS011;61291;52.524;13.422;2023-04-25T00:44:45;63.60;;;59.40;;
5710;SDS011;61291;52.524;13.422;2023-04-25T00:47:12;62.47;;;58.07;;
5710;SDS011;61291;52.524;13.422;2023-04-25T00:49:38;61.80;;;57.53;;
5710;SDS011;61291;52.524;13.422;2023-04-25T00:52:04;63.90;;;59.50;;
5710;SDS011;61291;52.524;13.422;2023-04-25T00:54:29;62.60;;;58.50;;
5710;SDS011;61291;52.524;13.422;2023-04-25T00:56:55;64.00;;;59.70;;
5710;SDS011;61291;52.524;13.422;2023-04-25T00:59:21;63.53;;;59.20;;
5710;SDS011;61291;52.524;13.422;2023-04-25T01:01:47;63.40;;;58.60;;
5710;SDS011;61291;52.524;13.422;2023-04-25T01:04:12;63.93;;;59.40;;
5710;SDS011;61291;52.524;13.422;2023-04-25T01:06:38;63.07;;;58.70;;
5710;SDS011;61291;52.524;13.422;2023-04-25T01:09:04;65.07;;;60.47;;
5710;SDS011;61291;52.524;13.422;2023-04-25T01:11:30;63.73;;;59.30;;
5710;SDS011;61291;52.524;13.422;2023-04-25T01:13:56;63.77;;;59.57;;
5710;SDS011;61291;52.524;13.422;2023-04-25T01:16:21;63.23;;;58.70;;
5710;SDS011;61291;52.524;13.422;2023-04-25T01:18:48;63.90;;;59.17;;
5710;SDS011;61291;52.524;13.422;2023-04-25T01:21:15;64.23;;;59.53;;
5710;SDS011;61291;52.524;13.422;2023-04-25T01:23:41;64.33;;;60.13;;
5710;SDS011;61291;52.524;13.422;2023-04-25T01:26:08;63.47;;;59.20;;
5710;SDS011;61291;52.524;13.422;2023-04-25T01:28:35;64.23;;;59.63;;
5710;SDS011;61291;52.524;13.422;2023-04-25T01:31:01;63.27;;;59.27;;
5710;SDS011;61291;52.524;13.422;2023-04-25T01:33:27;62.50;;;57.73;;
5710;SDS011;61291;52.524;13.422;2023-04-25T01:35:52;64.53;;;59.90;;
5710;SDS011;61291;52.524;13.422;2023-04-25T01:38:18;65.83;;;60.87;;
5710;SDS011;61291;52.524;13.422;2023-04-25T01:40:44;65.43;;;60.67;;
5710;SDS011;61291;52.524;13.422;2023-04-25T01:43:10;63.43;;;59.00;;
5710;SDS011;61291;52.524;13.422;2023-04-25T01:45:40;64.47;;;59.57;;
5710;SDS011;61291;52.524;13.422;2023-04-25T01:48:10;66.13;;;61.50;;
5710;SDS011;61291;52.524;13.422;2023-04-25T01:50:37;62.57;;;58.17;;
5710;SDS011;61291;52.524;13.422;2023-04-25T01:53:04;64.57;;;59.70;;
5710;SDS011;61291;52.524;13.422;2023-04-25T01:55:30;58.58;;;54.15;;
5710;SDS011;61291;52.524;13.422;2023-04-25T01:57:55;65.47;;;60.47;;
5710;SDS011;61291;52.524;13.422;2023-04-25T02:00:21;64.80;;;59.70;;
5710;SDS011;61291;52.524;13.422;2023-04-25T02:02:47;65.70;;;61.03;;
5710;SDS011;61291;52.524;13.422;2023-04-25T02:05:13;67.27;;;62.27;;
5710;SDS011;61291;52.524;13.422;2023-04-25T02:07:38;67.37;;;62.50;;
5710;SDS011;61291;52.524;13.422;2023-04-25T02:10:04;67.23;;;62.70;;
5710;SDS011;61291;52.524;13.422;2023-04-25T02:12:30;69.13;;;64.20;;
5710;SDS011;61291;52.524;13.422;2023-04-25T02:14:56;67.27;;;62.37;;
5710;SDS011;61291;52.524;13.422;2023-04-25T02:17:22;69.27;;;64.43;;
5710;SDS011;61291;52.524;13.422;2023-04-25T02:19:47;69.30;;;64.60;;
5710;SDS011;61291;52.524;13.422;2023-04-25T02:22:13;66.20;;;62.00;;
5710;SDS011;61291;52.524;13.422;2023-04-25T02:24:38;69.10;;;64.00;;
5710;SDS011;61291;52.524;13.422;2023-04-25T02:27:04;70.33;;;65.30;;
5710;SDS011;61291;52.524;13.422;2023-04-25T02:29:29;67.83;;;63.07;;
5710;SDS011;61291;52.524;13.422;2023-04-25T02:31:55;66.87;;;61.93;;
5710;SDS011;61291;52.524;13.422;2023-04-25T02:34:21;68.10;;;63.20;;
5710;SDS011;61291;52.524;13.422;2023-04-25T02:36:47;67.70;;;63.03;;
5710;SDS011;61291;52.524;13.422;2023-04-25T02:39:14;53.85;;;49.80;;
5710;SDS011;61291;52.524;13.422;2023-04-25T02:41:39;72.27;;;66.40;;
5710;SDS011;61291;52.524;13.422;2023-04-25T02:44:05;67.57;;;63.07;;
5710;SDS011;61291;52.524;13.422;2023-04-25T02:46:30;70.60;;;65.00;;
5710;SDS011;61291;52.524;13.422;2023-04-25T02:48:56;66.67;;;61.70;;
5710;SDS011;61291;52.524;13.422;2023-04-25T02:51:21;70.77;;;65.77;;
5710;SDS011;61291;52.524;13.422;2023-04-25T02:53:47;66.20;;;61.70;;
5710;SDS011;61291;52.524;13.422;2023-04-25T02:56:12;67.53;;;62.93;;
5710;SDS011;61291;52.524;13.422;2023-04-25T02:58:38;68.10;;;63.30;;
5710;SDS011;61291;52.524;13.422;2023-04-25T03:01:03;65.97;;;61.50;;
5710;SDS011;61291;52.524;13.422;2023-04-25T03:03:29;69.10;;;63.77;;
5710;SDS011;61291;52.524;13.422;2023-04-25T03:05:54;68.33;;;63.30;;
5710;SDS011;61291;52.524;13.422;2023-04-25T03:08:20;69.30;;;64.23;;
5710;SDS011;61291;52.524;13.422;2023-04-25T03:10:46;67.73;;;63.00;;
5710;SDS011;61291;52.524;13.422;2023-04-25T03:13:12;66.20;;;61.10;;
5710;SDS011;61291;52.524;13.422;2023-04-25T03:15:38;67.77;;;62.00;;
5710;SDS011;61291;52.524;13.422;2023-04-25T03:18:03;67.67;;;62.80;;
5710;SDS011;61291;52.524;13.422;2023-04-25T03:20:29;66.70;;;61.30;;
5710;SDS011;61291;52.524;13.422;2023-04-25T03:22:56;68.90;;;63.90;;
5710;SDS011;61291;52.524;13.422;2023-04-25T03:25:21;68.07;;;62.70;;
5710;SDS011;61291;52.524;13.422;2023-04-25T03:27:47;70.47;;;65.43;;
5710;SDS011;61291;52.524;13.422;2023-04-25T03:30:12;70.83;;;64.60;;
5710;SDS011;61291;52.524;13.422;2023-04-25T03:32:38;68.13;;;63.37;;
5710;SDS011;61291;52.524;13.422;2023-04-25T03:35:03;70.33;;;64.40;;
5710;SDS011;61291;52.524;13.422;2023-04-25T03:37:30;74.77;;;68.97;;
5710;SDS011;61291;52.524;13.422;2023-04-25T03:39:55;69.53;;;64.03;;
5710;SDS011;61291;52.524;13.422;2023-04-25T03:42:21;71.70;;;66.60;;
5710;SDS011;61291;52.524;13.422;2023-04-25T03:44:48;68.20;;;63.00;;
5710;SDS011;61291;52.524;13.422;2023-04-25T03:47:13;68.53;;;63.27;;
5710;SDS011;61291;52.524;13.422;2023-04-25T03:49:39;70.83;;;65.63;;
5710;SDS011;61291;52.524;13.422;2023-04-25T03:52:06;70.50;;;65.50;;
5710;SDS011;61291;52.524;13.422;2023-04-25T03:54:31;72.37;;;67.17;;
5710;SDS011;61291;52.524;13.422;2023-04-25T03:56:57;69.93;;;64.87;;
5710;SDS011;61291;52.524;13.422;2023-04-25T03:59:22;73.07;;;67.87;;
5710;SDS011;61291;52.524;13.422;2023-04-25T04:01:48;68.20;;;63.30;;
5710;SDS011;61291;52.524;13.422;2023-04-25T04:04:13;66.60;;;61.43;;
5710;SDS011;61291;52.524;13.422;2023-04-25T04:06:39;64.93;;;59.87;;
5710;SDS011;61291;52.524;13.422;2023-04-25T04:09:04;65.27;;;60.50;;
5710;SDS011;61291;52.524;13.422;2023-04-25T04:11:33;65.63;;;60.87;;
5710;SDS011;61291;52.524;13.422;2023-04-25T04:14:01;66.13;;;61.10;;
5710;SDS011;61291;52.524;13.422;2023-04-25T04:16:27;63.67;;;58.90;;
5710;SDS011;61291;52.524;13.422;2023-04-25T04:18:52;65.50;;;60.70;;
5710;SDS011;61291;52.524;13.422;2023-04-25T04:21:18;63.93;;;59.30;;
5710;SDS011;61291;52.524;13.422;2023-04-25T04:23:43;65.87;;;60.83;;
5710;SDS011;61291;52.524;13.422;2023-04-25T04:26:09;67.60;;;62.33;;
5710;SDS011;61291;52.524;13.422;2023-04-25T04:28:36;66.93;;;62.33;;
5710;SDS011;61291;52.524;13.422;2023-04-25T04:31:02;67.73;;;62.17;;
5710;SDS011;61291;52.524;13.422;2023-04-25T04:33:28;66.43;;;61.13;;
5710;SDS011;61291;52.524;13.422;2023-04-25T04:35:55;67.10;;;62.00;;
5710;SDS011;61291;52.524;13.422;2023-04-25T04:38:21;72.87;;;67.37;;
5710;SDS011;61291;52.524;13.422;2023-04-25T04:40:46;66.00;;;61.10;;
5710;SDS011;61291;52.524;13.422;2023-04-25T04:43:12;70.13;;;64.97;;
5710;SDS011;61291;52.524;13.422;2023-04-25T04:45:38;71.17;;;65.43;;
5710;SDS011;61291;52.524;13.422;2023-04-25T04:48:05;76.03;;;70.43;;
5710;SDS011;61291;52.524;13.422;2023-04-25T04:50:31;73.83;;;68.80;;
5710;SDS011;61291;52.524;13.422;2023-04-25T04:52:57;72.07;;;66.77;;
5710;SDS011;61291;52.524;13.422;2023-04-25T04:55:23;69.07;;;63.90;;
5710;SDS011;61291;52.524;13.422;2023-04-25T04:57:48;68.07;;;63.17;;
5710;SDS011;61291;52.524;13.422;2023-04-25T05:00:14;72.33;;;66.80;;
5710;SDS011;61291;52.524;13.422;2023-04-25T05:02:40;69.20;;;63.80;;
5710;SDS011;61291;52.524;13.422;2023-04-25T05:05:06;73.97;;;68.00;;
5710;SDS011;61291;52.524;13.422;2023-04-25T05:07:31;70.13;;;65.13;;
5710;SDS011;61291;52.524;13.422;2023-04-25T05:09:57;71.40;;;66.27;;
5710;SDS011;61291;52.524;13.422;2023-04-25T05:12:22;74.10;;;68.73;;
5710;SDS011;61291;52.524;13.422;2023-04-25T05:14:48;76.30;;;70.67;;
5710;SDS011;61291;52.524;13.422;2023-04-25T05:17:13;68.03;;;63.17;;
5710;SDS011;61291;52.524;13.422;2023-04-25T05:19:39;69.83;;;64.03;;
5710;SDS011;61291;52.524;13.422;2023-04-25T05:22:04;67.57;;;62.40;;
5710;SDS011;61291;52.524;13.422;2023-04-25T05:24:30;68.60;;;62.87;;
5710;SDS011;61291;52.524;13.422;2023-04-25T05:26:55;69.03;;;63.40;;
5710;SDS011;61291;52.524;13.422;2023-04-25T05:29:21;67.40;;;61.90;;
5710;SDS011;61291;52.524;13.422;2023-04-25T05:31:46;68.73;;;63.83;;
5710;SDS011;61291;52.524;13.422;2023-04-25T05:34:13;68.43;;;63.33;;
5710;SDS011;61291;52.524;13.422;2023-04-25T05:36:38;62.83;;;58.33;;
5710;SDS011;61291;52.524;13.422;2023-04-25T05:39:04;62.70;;;57.83;;
5710;SDS011;61291;52.524;13.422;2023-04-25T05:41:30;74.20;;;68.37;;
5710;SDS011;61291;52.524;13.422;2023-04-25T05:43:56;65.03;;;60.43;;
5710;SDS011;61291;52.524;13.422;2023-04-25T05:46:21;67.73;;;62.63;;
5710;SDS011;61291;52.524;13.422;2023-04-25T05:48:47;63.43;;;58.93;;
5710;SDS011;61291;52.524;13.422;2023-04-25T05:51:12;65.40;;;59.40;;
5710;SDS011;61291;52.524;13.422;2023-04-25T05:53:38;67.25;;;62.05;;
5710;SDS011;61291;52.524;13.422;2023-04-25T05:56:03;63.87;;;59.23;;
5710;SDS011;61291;52.524;13.422;2023-04-25T05:58:29;65.77;;;60.50;;
5710;SDS011;61291;52.524;13.422;2023-04-25T06:00:55;72.73;;;66.80;;
5710;SDS011;61291;52.524;13.422;2023-04-25T06:03:20;70.33;;;65.03;;
5710;SDS011;61291;52.524;13.422;2023-04-25T06:05:46;69.00;;;63.77;;
5710;SDS011;61291;52.524;13.422;2023-04-25T06:08:11;71.10;;;66.10;;
5710;SDS011;61291;52.524;13.422;2023-04-25T06:10:37;68.93;;;63.73;;
5710;SDS011;61291;52.524;13.422;2023-04-25T06:13:02;70.20;;;65.00;;
5710;SDS011;61291;52.524;13.422;2023-04-25T06:15:28;71.37;;;66.33;;
5710;SDS011;61291;52.524;13.422;2023-04-25T06:17:55;73.93;;;68.27;;
5710;SDS011;61291;52.524;13.422;2023-04-25T06:20:21;74.73;;;68.80;;
5710;SDS011;61291;52.524;13.422;2023-04-25T06:22:49;67.77;;;62.50;;
5710;SDS011;61291;52.524;13.422;2023-04-25T06:25:15;73.67;;;68.77;;
5710;SDS011;61291;52.524;13.422;2023-04-25T06:27:40;73.20;;;67.80;;
5710;SDS011;61291;52.524;13.422;2023-04-25T06:30:06;71.07;;;65.00;;
5710;SDS011;61291;52.524;13.422;2023-04-25T06:32:32;75.67;;;70.27;;
5710;SDS011;61291;52.524;13.422;2023-04-25T06:34:59;59.42;;;54.58;;
5710;SDS011;61291;52.524;13.422;2023-04-25T06:37:25;74.33;;;68.50;;
5710;SDS011;61291;52.524;13.422;2023-04-25T06:39:53;79.83;;;73.93;;
5710;SDS011;61291;52.524;13.422;2023-04-25T06:42:18;71.80;;;65.83;;
5710;SDS011;61291;52.524;13.422;2023-04-25T06:44:44;74.27;;;67.80;;
5710;SDS011;61291;52.524;13.422;2023-04-25T06:47:09;76.40;;;70.80;;
5710;SDS011;61291;52.524;13.422;2023-04-25T06:49:35;69.00;;;63.70;;
5710;SDS011;61291;52.524;13.422;2023-04-25T06:52:00;74.73;;;69.10;;
5710;SDS011;61291;52.524;13.422;2023-04-25T06:54:26;70.80;;;65.50;;
5710;SDS011;61291;52.524;13.422;2023-04-25T06:56:54;71.30;;;66.10;;
5710;SDS011;61291;52.524;13.422;2023-04-25T06:59:20;71.57;;;65.90;;
5710;SDS011;61291;52.524;13.422;2023-04-25T07:01:45;69.07;;;63.33;;
5710;SDS011;61291;52.524;13.422;2023-04-25T07:04:11;73.40;;;68.00;;
5710;SDS011;61291;52.524;13.422;2023-04-25T07:06:36;74.33;;;68.60;;
5710;SDS011;61291;52.524;13.422;2023-04-25T07:09:07;72.90;;;67.70;;
5710;SDS011;61291;52.524;13.422;2023-04-25T07:11:33;68.33;;;62.27;;
5710;SDS011;61291;52.524;13.422;2023-04-25T07:13:59;66.60;;;61.97;;
5710;SDS011;61291;52.524;13.422;2023-04-25T07:16:24;65.67;;;60.80;;
5710;SDS011;61291;52.524;13.422;2023-04-25T07:18:50;68.00;;;63.20;;
5710;SDS011;61291;52.524;13.422;2023-04-25T07:21:15;76.67;;;71.07;;
5710;SDS011;61291;52.524;13.422;2023-04-25T07:23:41;75.33;;;69.63;;
5710;SDS011;61291;52.524;13.422;2023-04-25T07:26:06;79.07;;;73.27;;
5710;SDS011;61291;52.524;13.422;2023-04-25T07:28:32;74.30;;;68.40;;
5710;SDS011;61291;52.524;13.422;2023-04-25T07:30:58;80.67;;;73.00;;
5710;SDS011;61291;52.524;13.422;2023-04-25T07:33:23;76.20;;;69.80;;
5710;SDS011;61291;52.524;13.422;2023-04-25T07:35:49;74.77;;;68.87;;
5710;SDS011;61291;52.524;13.422;2023-04-25T07:38:15;72.20;;;66.73;;
5710;SDS011;61291;52.524;13.422;2023-04-25T07:40:40;79.10;;;72.80;;
5710;SDS011;61291;52.524;13.422;2023-04-25T07:43:06;73.73;;;68.27;;
5710;SDS011;61291;52.524;13.422;2023-04-25T07:45:31;74.30;;;67.80;;
5710;SDS011;61291;52.524;13.422;2023-04-25T07:47:57;73.33;;;67.40;;
5710;SDS011;61291;52.524;13.422;2023-04-25T07:50:22;77.43;;;70.63;;
5710;SDS011;61291;52.524;13.422;2023-04-25T07:52:48;77.53;;;71.40;;
5710;SDS011;61291;52.524;13.422;2023-04-25T07:55:14;78.20;;;71.53;;
5710;SDS011;61291;52.524;13.422;2023-04-25T07:57:39;64.63;;;58.40;;
5710;SDS011;61291;52.524;13.422;2023-04-25T08:00:05;73.33;;;68.03;;
5710;SDS011;61291;52.524;13.422;2023-04-25T08:02:34;72.80;;;67.20;;
5710;SDS011;61291;52.524;13.422;2023-04-25T08:05:00;72.13;;;65.77;;
5710;SDS011;61291;52.524;13.422;2023-04-25T08:07:25;74.33;;;68.23;;
5710;SDS011;61291;52.524;13.422;2023-04-25T08:09:51;81.17;;;75.00;;
5710;SDS011;61291;52.524;13.422;2023-04-25T08:12:17;77.80;;;70.73;;
5710;SDS011;61291;52.524;13.422;2023-04-25T08:14:42;79.33;;;73.23;;
5710;SDS011;61291;52.524;13.422;2023-04-25T08:17:09;70.80;;;65.33;;
5710;SDS011;61291;52.524;13.422;2023-04-25T08:19:34;68.83;;;63.07;;
5710;SDS011;61291;52.524;13.422;2023-04-25T08:22:00;78.67;;;72.23;;
5710;SDS011;61291;52.524;13.422;2023-04-25T08:24:25;79.47;;;71.90;;
5710;SDS011;61291;52.524;13.422;2023-04-25T08:26:51;76.03;;;69.87;;
5710;SDS011;61291;52.524;13.422;2023-04-25T08:29:17;75.53;;;69.40;;
5710;SDS011;61291;52.524;13.422;2023-04-25T08:31:42;77.87;;;71.13;;
5710;SDS011;61291;52.524;13.422;2023-04-25T08:34:08;78.67;;;72.07;;
5710;SDS011;61291;52.524;13.422;2023-04-25T08:36:33;78.90;;;71.70;;
5710;SDS011;61291;52.524;13.422;2023-04-25T08:38:59;67.27;;;60.80;;
5710;SDS011;61291;52.524;13.422;2023-04-25T08:41:24;77.73;;;71.53;;
5710;SDS011;61291;52.524;13.422;2023-04-25T08:43:51;79.80;;;73.50;;
5710;SDS011;61291;52.524;13.422;2023-04-25T08:46:20;72.87;;;66.57;;
5710;SDS011;61291;52.524;13.422;2023-04-25T08:48:45;79.83;;;73.30;;
5710;SDS011;61291;52.524;13.422;2023-04-25T08:51:21;73.93;;;67.10;;
5710;SDS011;61291;52.524;13.422;2023-04-25T08:53:50;77.10;;;70.20;;
5710;SDS011;61291;52.524;13.422;2023-04-25T08:56:17;80.23;;;73.00;;
5710;SDS011;61291;52.524;13.422;2023-04-25T08:58:43;96.17;;;86.70;;
5710;SDS011;61291;52.524;13.422;2023-04-25T09:01:10;83.53;;;76.33;;
5710;SDS011;61291;52.524;13.422;2023-04-25T09:03:36;78.07;;;70.47;;
5710;SDS011;61291;52.524;13.422;2023-04-25T09:06:02;82.47;;;75.13;;
5710;SDS011;61291;52.524;13.422;2023-04-25T09:08:28;82.47;;;76.57;;
5710;SDS011;61291;52.524;13.422;2023-04-25T09:10:53;86.93;;;79.87;;
5710;SDS011;61291;52.524;13.422;2023-04-25T09:13:26;83.93;;;77.23;;
5710;SDS011;61291;52.524;13.422;2023-04-25T09:15:56;86.07;;;78.93;;
5710;SDS011;61291;52.524;13.422;2023-04-25T09:18:29;75.37;;;68.30;;
5710;SDS011;61291;52.524;13.422;2023-04-25T09:20:57;70.53;;;65.00;;
5710;SDS011;61291;52.524;13.422;2023-04-25T09:23:30;79.10;;;72.90;;
5710;SDS011;61291;52.524;13.422;2023-04-25T09:25:57;82.23;;;75.90;;
5710;SDS011;61291;52.524;13.422;2023-04-25T09:28:24;76.53;;;70.73;;
5710;SDS011;61291;52.524;13.422;2023-04-25T09:30:56;82.83;;;75.93;;
5710;SDS011;61291;52.524;13.422;2023-04-25T09:33:28;77.23;;;70.40;;
5710;SDS011;61291;52.524;13.422;2023-04-25T09:35:56;75.90;;;69.40;;
5710;SDS011;61291;52.524;13.422;2023-04-25T09:38:45;74.33;;;68.17;;
5710;SDS011;61291;52.524;13.422;2023-04-25T09:41:11;74.37;;;68.30;;
5710;SDS011;61291;52.524;13.422;2023-04-25T09:43:37;80.93;;;74.73;;
5710;SDS011;61291;52.524;13.422;2023-04-25T09:46:10;70.97;;;65.43;;
5710;SDS011;61291;52.524;13.422;2023-04-25T09:48:36;75.47;;;69.57;;
5710;SDS011;61291;52.524;13.422;2023-04-25T09:51:09;73.67;;;68.30;;
5710;SDS011;61291;52.524;13.422;2023-04-25T09:53:37;75.33;;;68.30;;
5710;SDS011;61291;52.524;13.422;2023-04-25T09:56:04;71.93;;;65.97;;
5710;SDS011;61291;52.524;13.422;2023-04-25T09:58:32;65.40;;;59.60;;
5710;SDS011;61291;52.524;13.422;2023-04-25T10:00:59;68.97;;;63.23;;
5710;SDS011;61291;52.524;13.422;2023-04-25T10:03:28;61.50;;;56.23;;
5710;SDS011;61291;52.524;13.422;2023-04-25T10:05:55;67.83;;;61.80;;
5710;SDS011;61291;52.524;13.422;2023-04-25T10:08:24;69.70;;;63.03;;
5710;SDS011;61291;52.524;13.422;2023-04-25T10:10:53;69.47;;;63.47;;
5710;SDS011;61291;52.524;13.422;2023-04-25T10:13:18;68.50;;;62.50;;
5710;SDS011;61291;52.524;13.422;2023-04-25T10:15:44;66.50;;;61.40;;
5710;SDS011;61291;52.524;13.422;2023-04-25T10:18:11;72.50;;;65.77;;
5710;SDS011;61291;52.524;13.422;2023-04-25T10:20:37;73.03;;;67.07;;
5710;SDS011;61291;52.524;13.422;2023-04-25T10:23:05;72.10;;;66.20;;
5710;SDS011;61291;52.524;13.422;2023-04-25T10:25:38;77.17;;;71.37;;
5710;SDS011;61291;52.524;13.422;2023-04-25T10:28:05;76.67;;;71.00;;
5710;SDS011;61291;52.524;13.422;2023-04-25T10:30:31;73.60;;;67.50;;
5710;SDS011;61291;52.524;13.422;2023-04-25T10:32:56;71.80;;;66.40;;
5710;SDS011;61291;52.524;13.422;2023-04-25T10:35:25;72.40;;;66.37;;
5710;SDS011;61291;52.524;13.422;2023-04-25T10:38:05;75.73;;;69.87;;
5710;SDS011;61291;52.524;13.422;2023-04-25T10:40:35;76.90;;;71.13;;
5710;SDS011;61291;52.524;13.422;2023-04-25T10:43:32;76.23;;;69.50;;
5710;SDS011;61291;52.524;13.422;2023-04-25T10:46:24;62.72;;;57.63;;
5710;SDS011;61291;52.524;13.422;2023-04-25T10:48:57;72.30;;;66.50;;
5710;SDS011;61291;52.524;13.422;2023-04-25T10:51:24;71.00;;;66.00;;
5710;SDS011;61291;52.524;13.422;2023-04-25T10:56:20;69.83;;;64.20;;
5710;SDS011;61291;52.524;13.422;2023-04-25T10:59:12;72.00;;;66.20;;
5710;SDS011;61291;52.524;13.422;2023-04-25T11:01:44;69.30;;;63.53;;
5710;SDS011;61291;52.524;13.422;2023-04-25T11:10:02;80.83;;;74.57;;
5710;SDS011;61291;52.524;13.422;2023-04-25T11:12:29;76.73;;;71.23;;
5710;SDS011;61291;52.524;13.422;2023-04-25T11:15:03;79.00;;;73.03;;
5710;SDS011;61291;52.524;13.422;2023-04-25T11:17:32;65.60;;;60.80;;
5710;SDS011;61291;52.524;13.422;2023-04-25T11:19:58;74.30;;;68.60;;
5710;SDS011;61291;52.524;13.422;2023-04-25T11:22:24;68.43;;;62.70;;
5710;SDS011;61291;52.524;13.422;2023-04-25T11:24:52;68.30;;;63.07;;
5710;SDS011;61291;52.524;13.422;2023-04-25T11:27:18;62.35;;;57.53;;
5710;SDS011;61291;52.524;13.422;2023-04-25T11:29:44;72.50;;;67.10;;
5710;SDS011;61291;52.524;13.422;2023-04-25T11:32:09;70.83;;;65.30;;
5710;SDS011;61291;52.524;13.422;2023-04-25T11:34:35;73.30;;;67.53;;
5710;SDS011;61291;52.524;13.422;2023-04-25T11:37:00;71.10;;;65.90;;
5710;SDS011;61291;52.524;13.422;2023-04-25T11:39:27;77.27;;;71.50;;
5710;SDS011;61291;52.524;13.422;2023-04-25T11:41:54;77.97;;;72.57;;
5710;SDS011;61291;52.524;13.422;2023-04-25T11:44:20;71.47;;;65.63;;
5710;SDS011;61291;52.524;13.422;2023-04-25T11:46:46;72.60;;;66.07;;
5710;SDS011;61291;52.524;13.422;2023-04-25T11:49:12;70.73;;;65.10;;
5710;SDS011;61291;52.524;13.422;2023-04-25T11:51:39;68.77;;;63.47;;
5710;SDS011;61291;52.524;13.422;2023-04-25T11:54:05;72.83;;;67.43;;
5710;SDS011;61291;52.524;13.422;2023-04-25T11:56:31;73.80;;;68.17;;
5710;SDS011;61291;52.524;13.422;2023-04-25T11:59:04;71.33;;;66.17;;
5710;SDS011;61291;52.524;13.422;2023-04-25T12:01:31;70.90;;;65.50;;
5710;SDS011;61291;52.524;13.422;2023-04-25T12:03:58;69.90;;;64.17;;
5710;SDS011;61291;52.524;13.422;2023-04-25T12:06:37;69.57;;;63.93;;
5710;SDS011;61291;52.524;13.422;2023-04-25T12:09:07;73.82;;;68.20;;
5710;SDS011;61291;52.524;13.422;2023-04-25T12:11:41;71.20;;;65.63;;
5710;SDS011;61291;52.524;13.422;2023-04-25T12:14:08;76.80;;;69.80;;
5710;SDS011;61291;52.524;13.422;2023-04-25T12:16:41;69.90;;;64.70;;
5710;SDS011;61291;52.524;13.422;2023-04-25T12:19:07;71.87;;;65.97;;
5710;SDS011;61291;52.524;13.422;2023-04-25T12:21:33;79.03;;;73.30;;
5710;SDS011;61291;52.524;13.422;2023-04-25T12:24:12;73.30;;;67.60;;
5710;SDS011;61291;52.524;13.422;2023-04-25T12:27:14;75.93;;;69.40;;
5710;SDS011;61291;52.524;13.422;2023-04-25T12:29:33;77.23;;;71.13;;
5710;SDS011;61291;52.524;13.422;2023-04-25T12:31:59;76.43;;;70.93;;
5710;SDS011;61291;52.524;13.422;2023-04-25T12:34:26;71.40;;;66.10;;
5710;SDS011;61291;52.524;13.422;2023-04-25T12:36:52;72.40;;;66.93;;
5710;SDS011;61291;52.524;13.422;2023-04-25T12:39:21;74.37;;;68.80;;
5710;SDS011;61291;52.524;13.422;2023-04-25T12:41:50;74.87;;;69.20;;
5710;SDS011;61291;52.524;13.422;2023-04-25T12:44:18;75.83;;;70.07;;
5710;SDS011;61291;52.524;13.422;2023-04-25T12:46:44;71.70;;;65.80;;
5710;SDS011;61291;52.524;13.422;2023-04-25T12:49:10;76.07;;;70.77;;
5710;SDS011;61291;52.524;13.422;2023-04-25T12:51:35;80.13;;;73.90;;
5710;SDS011;61291;52.524;13.422;2023-04-25T12:54:02;73.60;;;68.50;;
5710;SDS011;61291;52.524;13.422;2023-04-25T12:56:28;72.93;;;67.93;;
5710;SDS011;61291;52.524;13.422;2023-04-25T12:58:55;71.30;;;65.20;;
5710;SDS011;61291;52.524;13.422;2023-04-25T13:01:21;71.30;;;66.20;;
5710;SDS011;61291;52.524;13.422;2023-04-25T13:03:47;65.40;;;60.17;;
5710;SDS011;61291;52.524;13.422;2023-04-25T13:06:16;74.83;;;69.13;;
5710;SDS011;61291;52.524;13.422;2023-04-25T13:08:42;81.10;;;73.63;;
5710;SDS011;61291;52.524;13.422;2023-04-25T13:11:07;75.80;;;70.03;;
5710;SDS011;61291;52.524;13.422;2023-04-25T13:13:33;71.50;;;65.80;;
5710;SDS011;61291;52.524;13.422;2023-04-25T13:16:00;81.20;;;75.10;;
5710;SDS011;61291;52.524;13.422;2023-04-25T13:18:27;80.23;;;73.60;;
5710;SDS011;61291;52.524;13.422;2023-04-25T13:20:53;79.30;;;73.70;;
5710;SDS011;61291;52.524;13.422;2023-04-25T13:23:19;81.30;;;75.50;;
5710;SDS011;61291;52.524;13.422;2023-04-25T13:25:45;70.83;;;65.00;;
5710;SDS011;61291;52.524;13.422;2023-04-25T13:28:11;73.33;;;68.00;;
5710;SDS011;61291;52.524;13.422;2023-04-25T13:30:37;74.70;;;69.10;;
5710;SDS011;61291;52.524;13.422;2023-04-25T13:33:02;77.90;;;71.70;;
5710;SDS011;61291;52.524;13.422;2023-04-25T13:35:29;68.43;;;62.60;;
5710;SDS011;61291;52.524;13.422;2023-04-25T13:37:55;76.33;;;70.07;;
5710;SDS011;61291;52.524;13.422;2023-04-25T13:40:21;80.23;;;73.80;;
5710;SDS011;61291;52.524;13.422;2023-04-25T13:42:47;70.27;;;64.43;;
5710;SDS011;61291;52.524;13.422;2023-04-25T13:45:12;68.80;;;63.13;;
5710;SDS011;61291;52.524;13.422;2023-04-25T13:47:38;72.30;;;67.30;;
5710;SDS011;61291;52.524;13.422;2023-04-25T13:50:04;69.47;;;64.27;;
5710;SDS011;61291;52.524;13.422;2023-04-25T13:52:33;69.43;;;64.17;;
5710;SDS011;61291;52.524;13.422;2023-04-25T13:54:59;70.77;;;64.83;;
5710;SDS011;61291;52.524;13.422;2023-04-25T13:57:24;68.23;;;62.73;;
5710;SDS011;61291;52.524;13.422;2023-04-25T13:59:50;71.27;;;65.77;;
5710;SDS011;61291;52.524;13.422;2023-04-25T14:02:16;63.13;;;58.53;;
5710;SDS011;61291;52.524;13.422;2023-04-25T14:04:42;72.70;;;67.23;;
5710;SDS011;61291;52.524;13.422;2023-04-25T14:07:07;72.70;;;66.77;;
5710;SDS011;61291;52.524;13.422;2023-04-25T14:09:33;69.50;;;64.00;;
5710;SDS011;61291;52.524;13.422;2023-04-25T14:11:59;73.50;;;68.30;;
5710;SDS011;61291;52.524;13.422;2023-04-25T14:14:25;70.30;;;64.80;;
5710;SDS011;61291;52.524;13.422;2023-04-25T14:16:50;70.03;;;64.43;;
5710;SDS011;61291;52.524;13.422;2023-04-25T14:19:18;68.50;;;62.90;;
5710;SDS011;61291;52.524;13.422;2023-04-25T14:21:44;69.43;;;63.73;;
5710;SDS011;61291;52.524;13.422;2023-04-25T14:24:09;72.63;;;67.33;;
5710;SDS011;61291;52.524;13.422;2023-04-25T14:26:38;77.03;;;71.40;;